createdAt,value
2023-01-19T00:00:28.279Z,87.52
2023-01-19T00:01:28.178Z,87.49
2023-01-19T00:02:28.223Z,87.49
2023-01-19T00:03:28.141Z,87.49
2023-01-19T00:04:28.138Z,87.42
2023-01-19T00:05:28.143Z,87.32
2023-01-19T00:06:28.158Z,87.52
2023-01-19T00:07:28.106Z,87.52
2023-01-19T00:08:28.101Z,87.63
2023-01-19T00:09:28.154Z,87.59
2023-01-19T00:10:28.095Z,87.42
2023-01-19T00:11:28.076Z,87.32
2023-01-19T00:12:28.056Z,87.32
2023-01-19T00:13:28.048Z,87.52
2023-01-19T00:14:28.031Z,87.42
2023-01-19T00:15:28.057Z,87.11
2023-01-19T00:16:28.077Z,87.11
2023-01-19T00:17:28.014Z,87.52
2023-01-19T00:18:27.994Z,87.42
2023-01-19T00:19:27.984Z,87.63
2023-01-19T00:20:28.012Z,87.21
2023-01-19T00:21:27.969Z,87.52
2023-01-19T00:22:27.968Z,87.21
2023-01-19T00:23:27.962Z,87.21
2023-01-19T00:24:27.942Z,87.52
2023-01-19T00:25:27.944Z,87.63
2023-01-19T00:26:27.932Z,87.42
2023-01-19T00:27:27.913Z,87.42
2023-01-19T00:28:27.898Z,87.67
2023-01-19T00:29:27.886Z,87.52
2023-01-19T00:30:27.882Z,87.52
2023-01-19T00:31:27.965Z,87.32
2023-01-19T00:32:27.876Z,87.21
2023-01-19T00:33:27.866Z,87.21
2023-01-19T00:34:27.837Z,87.32
2023-01-19T00:35:27.828Z,87.25
2023-01-19T00:36:27.826Z,87.52
2023-01-19T00:37:27.821Z,87.32
2023-01-19T00:38:27.794Z,87.21
2023-01-19T00:39:27.793Z,87.36
2023-01-19T00:40:27.780Z,87.63
2023-01-19T00:41:27.793Z,87.42
2023-01-19T00:42:27.753Z,87.42
2023-01-19T00:43:27.753Z,87.21
2023-01-19T00:44:27.749Z,87.21
2023-01-19T00:45:27.792Z,87.21
2023-01-19T00:46:27.726Z,87.32
2023-01-19T00:47:27.714Z,87.52
2023-01-19T00:48:27.697Z,87.52
2023-01-19T00:49:27.685Z,87.42
2023-01-19T00:50:27.671Z,87.42
2023-01-19T00:51:27.683Z,87.63
2023-01-19T00:52:27.674Z,87.11
2023-01-19T00:53:27.657Z,87.46
2023-01-19T00:54:27.755Z,87.57
2023-01-19T00:55:27.634Z,87.67
2023-01-19T00:56:27.658Z,87.36
2023-01-19T00:57:27.655Z,87.32
2023-01-19T00:58:27.599Z,87.46
2023-01-19T00:59:27.605Z,87.57
2023-01-19T01:00:27.588Z,87.32
2023-01-19T01:01:45.048Z,87.46
2023-01-19T01:02:28.758Z,87.25
2023-01-19T01:03:27.572Z,87.42
2023-01-19T01:04:27.550Z,87.52
2023-01-19T01:05:27.536Z,87.21
2023-01-19T01:06:27.541Z,87.52
2023-01-19T01:07:27.513Z,87.21
2023-01-19T01:08:27.504Z,87.52
2023-01-19T01:09:27.548Z,87.21
2023-01-19T01:10:27.494Z,87.49
2023-01-19T01:11:27.494Z,87.42
2023-01-19T01:12:27.459Z,87.17
2023-01-19T01:13:28.037Z,87.28
2023-01-19T01:14:28.430Z,87.52
2023-01-19T01:15:27.496Z,87.17
2023-01-19T01:16:27.473Z,87.17
2023-01-19T01:17:27.455Z,87.28
2023-01-19T01:18:27.400Z,87.59
2023-01-19T01:19:27.393Z,87.80
2023-01-19T01:20:27.388Z,87.45
2023-01-19T01:21:27.405Z,87.24
2023-01-19T01:22:27.357Z,86.92
2023-01-19T01:23:27.361Z,87.24
2023-01-19T01:24:27.348Z,87.03
2023-01-19T01:25:27.363Z,86.40
2023-01-19T01:26:27.880Z,86.40
2023-01-19T01:27:27.341Z,86.36
2023-01-19T01:28:27.306Z,86.61
2023-01-19T01:29:27.303Z,86.68
2023-01-19T01:30:27.284Z,86.57
2023-01-19T01:31:27.313Z,86.25
2023-01-19T01:32:27.269Z,86.05
2023-01-19T01:33:41.340Z,85.94
2023-01-19T01:34:28.244Z,85.94
2023-01-19T01:35:27.241Z,85.63
2023-01-19T01:36:27.258Z,85.73
2023-01-19T01:37:27.222Z,85.73
2023-01-19T01:38:27.205Z,85.94
2023-01-19T01:39:27.198Z,85.83
2023-01-19T01:40:27.190Z,85.83
2023-01-19T01:41:27.200Z,86.05
2023-01-19T01:42:27.266Z,85.31
2023-01-19T01:43:27.158Z,85.52
2023-01-19T01:44:27.173Z,85.52
2023-01-19T01:45:27.191Z,85.63
2023-01-19T01:46:27.173Z,85.73
2023-01-19T01:47:27.119Z,85.42
2023-01-19T01:48:27.106Z,85.56
2023-01-19T01:49:27.098Z,85.52
2023-01-19T01:50:27.079Z,85.94
2023-01-19T01:51:27.113Z,85.56
2023-01-19T01:52:27.079Z,85.94
2023-01-19T01:53:27.063Z,85.83
2023-01-19T01:54:27.039Z,86.08
2023-01-19T01:55:27.051Z,85.83
2023-01-19T01:56:27.050Z,85.73
2023-01-19T01:57:27.025Z,85.73
2023-01-19T01:58:27.010Z,86.05
2023-01-19T01:59:27.020Z,86.25
2023-01-19T02:00:26.995Z,86.05
2023-01-19T02:01:29.229Z,85.94
2023-01-19T02:02:26.997Z,86.25
2023-01-19T02:03:27.021Z,86.25
2023-01-19T02:04:26.959Z,86.25
2023-01-19T02:05:26.949Z,86.22
2023-01-19T02:06:26.958Z,86.43
2023-01-19T02:07:26.929Z,86.57
2023-01-19T02:08:26.921Z,86.53
2023-01-19T02:09:26.896Z,86.22
2023-01-19T02:10:26.903Z,86.43
2023-01-19T02:11:26.906Z,86.22
2023-01-19T02:12:26.875Z,86.22
2023-01-19T02:13:26.852Z,86.43
2023-01-19T02:14:26.853Z,86.63
2023-01-19T02:15:26.851Z,86.00
2023-01-19T02:16:26.860Z,86.11
2023-01-19T02:17:26.818Z,86.11
2023-01-19T02:18:26.804Z,86.11
2023-01-19T02:19:26.806Z,86.11
2023-01-19T02:20:26.786Z,86.25
2023-01-19T02:21:26.803Z,86.11
2023-01-19T02:22:26.771Z,86.36
2023-01-19T02:23:26.758Z,86.15
2023-01-19T02:24:26.751Z,86.15
2023-01-19T02:25:26.748Z,86.22
2023-01-19T02:26:26.752Z,86.25
2023-01-19T02:27:26.729Z,86.25
2023-01-19T02:28:26.715Z,86.36
2023-01-19T02:29:26.705Z,86.61
2023-01-19T02:30:26.726Z,86.68
2023-01-19T02:31:26.706Z,86.46
2023-01-19T02:32:26.682Z,86.92
2023-01-19T02:33:26.666Z,87.41
2023-01-19T02:34:26.655Z,86.68
2023-01-19T02:35:26.649Z,87.66
2023-01-19T02:36:26.655Z,87.41
2023-01-19T02:37:26.635Z,87.55
2023-01-19T02:38:26.614Z,87.45
2023-01-19T02:39:26.608Z,87.34
2023-01-19T02:40:26.608Z,87.30
2023-01-19T02:41:26.664Z,87.30
2023-01-19T02:42:26.578Z,87.34
2023-01-19T02:43:26.567Z,87.30
2023-01-19T02:44:26.559Z,87.24
2023-01-19T02:45:26.551Z,87.24
2023-01-19T02:46:26.559Z,87.41
2023-01-19T02:47:26.539Z,87.45
2023-01-19T02:48:26.525Z,87.45
2023-01-19T02:49:26.517Z,87.13
2023-01-19T02:50:26.510Z,87.45
2023-01-19T02:51:26.519Z,87.45
2023-01-19T02:52:26.485Z,87.34
2023-01-19T02:53:26.466Z,87.34
2023-01-19T02:54:26.470Z,87.34
2023-01-19T02:55:26.455Z,87.66
2023-01-19T02:56:26.471Z,87.62
2023-01-19T02:57:26.427Z,87.45
2023-01-19T02:58:26.419Z,87.41
2023-01-19T02:59:26.413Z,87.76
2023-01-19T03:00:26.405Z,87.51
2023-01-19T03:01:26.511Z,87.41
2023-01-19T03:02:26.422Z,87.62
2023-01-19T03:03:26.380Z,87.20
2023-01-19T03:04:26.378Z,87.62
2023-01-19T03:05:26.368Z,87.51
2023-01-19T03:06:26.371Z,87.51
2023-01-19T03:07:26.335Z,87.66
2023-01-19T03:08:26.325Z,87.72
2023-01-19T03:09:26.313Z,87.41
2023-01-19T03:10:26.304Z,87.72
2023-01-19T03:11:26.314Z,87.72
2023-01-19T03:12:26.284Z,87.41
2023-01-19T03:13:26.288Z,87.62
2023-01-19T03:14:26.265Z,87.41
2023-01-19T03:15:26.294Z,87.72
2023-01-19T03:16:26.286Z,87.72
2023-01-19T03:17:26.226Z,87.51
2023-01-19T03:18:26.219Z,87.89
2023-01-19T03:19:26.211Z,87.72
2023-01-19T03:20:27.203Z,87.79
2023-01-19T03:21:26.210Z,88.14
2023-01-19T03:22:26.219Z,87.51
2023-01-19T03:23:26.188Z,88.14
2023-01-19T03:24:26.166Z,87.93
2023-01-19T03:25:26.162Z,87.62
2023-01-19T03:26:26.143Z,87.93
2023-01-19T03:27:26.150Z,87.41
2023-01-19T03:28:26.125Z,87.83
2023-01-19T03:29:26.110Z,87.72
2023-01-19T03:30:26.116Z,87.93
2023-01-19T03:31:26.100Z,88.04
2023-01-19T03:32:26.112Z,88.04
2023-01-19T03:33:26.090Z,88.04
2023-01-19T03:34:26.073Z,87.93
2023-01-19T03:35:26.058Z,87.93
2023-01-19T03:36:26.052Z,87.83
2023-01-19T03:37:26.069Z,87.93
2023-01-19T03:38:26.027Z,87.83
2023-01-19T03:39:26.020Z,87.83
2023-01-19T03:40:26.002Z,88.04
2023-01-19T03:41:26.078Z,88.04
2023-01-19T03:42:26.007Z,87.83
2023-01-19T03:43:25.976Z,87.62
2023-01-19T03:44:25.970Z,87.93
2023-01-19T03:45:25.966Z,88.04
2023-01-19T03:46:26.015Z,87.72
2023-01-19T03:47:25.968Z,88.04
2023-01-19T03:48:25.924Z,87.83
2023-01-19T03:49:25.915Z,87.72
2023-01-19T03:50:25.903Z,87.72
2023-01-19T03:51:25.900Z,87.72
2023-01-19T03:52:25.897Z,88.04
2023-01-19T03:53:25.877Z,87.83
2023-01-19T03:54:25.868Z,87.83
2023-01-19T03:55:25.859Z,87.93
2023-01-19T03:56:25.845Z,87.76
2023-01-19T03:57:25.850Z,87.76
2023-01-19T03:58:25.833Z,87.97
2023-01-19T03:59:25.824Z,88.07
2023-01-19T04:00:25.810Z,88.18
2023-01-19T04:01:25.879Z,88.18
2023-01-19T04:02:25.898Z,88.29
2023-01-19T04:03:25.780Z,88.71
2023-01-19T04:04:25.778Z,88.32
2023-01-19T04:05:25.752Z,88.60
2023-01-19T04:06:25.750Z,88.54
2023-01-19T04:07:25.764Z,88.75
2023-01-19T04:08:25.735Z,88.43
2023-01-19T04:09:25.744Z,88.16
2023-01-19T04:10:25.713Z,88.37
2023-01-19T04:11:25.734Z,88.79
2023-01-19T04:12:25.715Z,89.21
2023-01-19T04:13:25.686Z,89.31
2023-01-19T04:14:25.670Z,89.31
2023-01-19T04:15:25.664Z,89.17
2023-01-19T04:16:25.658Z,89.31
2023-01-19T04:17:25.657Z,88.54
2023-01-19T04:18:25.628Z,89.21
2023-01-19T04:19:25.630Z,89.31
2023-01-19T04:20:25.609Z,89.31
2023-01-19T04:21:25.592Z,89.62
2023-01-19T04:22:25.621Z,89.67
2023-01-19T04:23:25.586Z,89.84
2023-01-19T04:24:25.573Z,89.73
2023-01-19T04:25:25.574Z,89.94
2023-01-19T04:26:25.552Z,90.15
2023-01-19T04:27:25.560Z,89.73
2023-01-19T04:28:25.535Z,90.15
2023-01-19T04:29:25.543Z,89.42
2023-01-19T04:30:25.524Z,89.84
2023-01-19T04:31:25.517Z,89.42
2023-01-19T04:32:25.515Z,89.73
2023-01-19T04:33:25.490Z,89.62
2023-01-19T04:34:25.466Z,89.73
2023-01-19T04:35:25.463Z,90.40
2023-01-19T04:36:25.451Z,90.05
2023-01-19T04:37:25.463Z,90.05
2023-01-19T04:38:25.426Z,90.19
2023-01-19T04:39:25.433Z,90.57
2023-01-19T04:40:25.429Z,90.36
2023-01-19T04:41:25.406Z,90.57
2023-01-19T04:42:25.412Z,90.51
2023-01-19T04:43:25.408Z,90.72
2023-01-19T04:44:25.373Z,90.72
2023-01-19T04:45:25.373Z,90.51
2023-01-19T04:46:25.365Z,90.61
2023-01-19T04:47:25.378Z,90.36
2023-01-19T04:48:25.345Z,91.09
2023-01-19T04:49:25.327Z,91.14
2023-01-19T04:50:25.308Z,91.24
2023-01-19T04:51:25.309Z,90.40
2023-01-19T04:52:25.320Z,91.14
2023-01-19T04:53:25.295Z,90.82
2023-01-19T04:54:25.338Z,90.78
2023-01-19T04:55:25.264Z,90.78
2023-01-19T04:56:25.275Z,91.45
2023-01-19T04:57:25.394Z,91.30
2023-01-19T04:58:25.230Z,91.20
2023-01-19T04:59:25.223Z,91.14
2023-01-19T05:00:25.224Z,91.09
2023-01-19T05:01:26.218Z,91.09
2023-01-19T05:02:25.216Z,91.14
2023-01-19T05:03:26.565Z,91.45
2023-01-19T05:04:26.186Z,91.24
2023-01-19T05:05:25.173Z,91.09
2023-01-19T05:06:25.166Z,91.09
2023-01-19T05:07:25.167Z,91.20
2023-01-19T05:08:25.144Z,91.20
2023-01-19T05:09:25.122Z,91.20
2023-01-19T05:10:25.116Z,91.41
2023-01-19T05:11:25.107Z,91.30
2023-01-19T05:12:25.114Z,91.30
2023-01-19T05:13:25.098Z,91.30
2023-01-19T05:14:25.086Z,91.30
2023-01-19T05:15:25.067Z,91.47
2023-01-19T05:16:25.156Z,91.58
2023-01-19T05:17:25.064Z,91.58
2023-01-19T05:18:25.045Z,91.58
2023-01-19T05:19:25.028Z,91.79
2023-01-19T05:20:25.027Z,91.52
2023-01-19T05:21:25.012Z,91.47
2023-01-19T05:22:25.049Z,91.27
2023-01-19T05:23:24.985Z,91.58
2023-01-19T05:24:24.983Z,91.47
2023-01-19T05:25:24.970Z,91.58
2023-01-19T05:26:24.959Z,91.27
2023-01-19T05:27:24.967Z,91.37
2023-01-19T05:28:24.940Z,91.58
2023-01-19T05:29:24.939Z,91.33
2023-01-19T05:30:24.915Z,91.22
2023-01-19T05:31:25.017Z,91.22
2023-01-19T05:32:24.917Z,91.37
2023-01-19T05:33:24.876Z,91.22
2023-01-19T05:34:24.881Z,91.43
2023-01-19T05:35:35.248Z,91.12
2023-01-19T05:36:26.857Z,91.64
2023-01-19T05:37:24.885Z,91.64
2023-01-19T05:38:34.533Z,91.22
2023-01-19T05:39:26.837Z,91.53
2023-01-19T05:40:24.827Z,91.22
2023-01-19T05:41:24.803Z,91.33
2023-01-19T05:42:24.815Z,91.39
2023-01-19T05:43:24.786Z,91.33
2023-01-19T05:44:24.777Z,91.33
2023-01-19T05:45:24.760Z,91.28
2023-01-19T05:46:24.800Z,91.12
2023-01-19T05:47:24.773Z,91.28
2023-01-19T05:48:24.745Z,91.08
2023-01-19T05:49:24.720Z,90.87
2023-01-19T05:50:24.719Z,90.87
2023-01-19T05:51:24.708Z,91.28
2023-01-19T05:52:24.717Z,90.80
2023-01-19T05:53:24.704Z,91.01
2023-01-19T05:54:24.682Z,90.76
2023-01-19T05:55:24.668Z,90.97
2023-01-19T05:56:24.676Z,90.97
2023-01-19T05:57:24.664Z,91.22
2023-01-19T05:58:24.636Z,91.12
2023-01-19T05:59:24.637Z,91.18
2023-01-19T06:00:24.632Z,91.22
2023-01-19T06:01:24.658Z,91.22
2023-01-19T06:02:24.632Z,91.01
2023-01-19T06:03:24.627Z,90.91
2023-01-19T06:04:24.580Z,91.01
2023-01-19T06:05:24.567Z,91.33
2023-01-19T06:06:24.561Z,91.33
2023-01-19T06:07:25.656Z,91.12
2023-01-19T06:08:24.557Z,91.12
2023-01-19T06:09:24.531Z,91.33
2023-01-19T06:10:24.530Z,91.33
2023-01-19T06:11:24.514Z,91.33
2023-01-19T06:12:24.519Z,91.22
2023-01-19T06:13:24.494Z,91.12
2023-01-19T06:14:24.486Z,91.01
2023-01-19T06:15:24.466Z,91.01
2023-01-19T06:16:24.520Z,91.22
2023-01-19T06:17:24.455Z,91.22
2023-01-19T06:18:24.442Z,91.22
2023-01-19T06:19:24.432Z,91.22
2023-01-19T06:20:24.418Z,91.28
2023-01-19T06:21:24.402Z,91.08
2023-01-19T06:22:24.426Z,91.33
2023-01-19T06:23:26.705Z,91.33
2023-01-19T06:24:24.381Z,90.97
2023-01-19T06:25:24.367Z,90.97
2023-01-19T06:26:24.368Z,90.76
2023-01-19T06:27:24.367Z,90.80
2023-01-19T06:28:24.372Z,90.97
2023-01-19T06:29:24.317Z,91.28
2023-01-19T06:30:24.320Z,90.76
2023-01-19T06:31:24.340Z,91.08
2023-01-19T06:32:24.316Z,91.08
2023-01-19T06:33:24.282Z,90.87
2023-01-19T06:34:24.277Z,90.87
2023-01-19T06:35:24.269Z,90.87
2023-01-19T06:36:24.270Z,91.08
2023-01-19T06:37:24.269Z,90.91
2023-01-19T06:38:24.241Z,90.97
2023-01-19T06:39:24.251Z,90.66
2023-01-19T06:40:24.225Z,90.80
2023-01-19T06:41:24.212Z,90.70
2023-01-19T06:42:24.200Z,90.80
2023-01-19T06:43:24.221Z,91.12
2023-01-19T06:44:24.181Z,90.70
2023-01-19T06:45:24.170Z,90.80
2023-01-19T06:46:24.167Z,90.91
2023-01-19T06:47:24.149Z,90.91
2023-01-19T06:48:24.166Z,90.76
2023-01-19T06:49:24.132Z,91.08
2023-01-19T06:50:24.122Z,90.80
2023-01-19T06:51:24.115Z,90.87
2023-01-19T06:52:24.105Z,90.66
2023-01-19T06:53:24.104Z,90.76
2023-01-19T06:54:24.083Z,90.66
2023-01-19T06:55:24.420Z,90.76
2023-01-19T06:56:24.063Z,90.66
2023-01-19T06:57:24.048Z,90.76
2023-01-19T06:58:24.063Z,90.76
2023-01-19T06:59:24.033Z,90.34
2023-01-19T07:00:24.022Z,90.45
2023-01-19T07:01:25.086Z,90.76
2023-01-19T07:02:26.696Z,90.76
2023-01-19T07:03:24.063Z,90.34
2023-01-19T07:04:23.997Z,90.97
2023-01-19T07:05:23.981Z,90.76
2023-01-19T07:06:23.967Z,90.45
2023-01-19T07:07:24.024Z,90.93
2023-01-19T07:08:23.965Z,90.83
2023-01-19T07:09:23.921Z,90.87
2023-01-19T07:10:23.920Z,90.87
2023-01-19T07:11:30.803Z,90.87
2023-01-19T07:12:24.904Z,90.72
2023-01-19T07:13:23.915Z,90.61
2023-01-19T07:14:23.883Z,90.72
2023-01-19T07:15:23.876Z,90.61
2023-01-19T07:16:23.920Z,90.72
2023-01-19T07:17:23.856Z,90.41
2023-01-19T07:18:23.867Z,90.51
2023-01-19T07:19:23.834Z,90.51
2023-01-19T07:20:23.822Z,90.51
2023-01-19T07:21:23.813Z,90.51
2023-01-19T07:22:23.806Z,90.51
2023-01-19T07:23:23.811Z,90.36
2023-01-19T07:24:23.792Z,90.26
2023-01-19T07:25:23.771Z,90.09
2023-01-19T07:26:23.764Z,90.47
2023-01-19T07:27:23.758Z,90.09
2023-01-19T07:28:23.761Z,90.20
2023-01-19T07:29:23.739Z,90.41
2023-01-19T07:30:23.718Z,90.05
2023-01-19T07:31:23.868Z,89.57
2023-01-19T07:32:23.709Z,89.88
2023-01-19T07:33:23.707Z,89.63
2023-01-19T07:34:23.683Z,89.98
2023-01-19T07:35:23.676Z,89.63
2023-01-19T07:36:23.674Z,89.63
2023-01-19T07:37:23.700Z,89.78
2023-01-19T07:38:23.670Z,89.57
2023-01-19T07:39:23.647Z,89.84
2023-01-19T07:40:24.100Z,89.73
2023-01-19T07:41:24.612Z,89.88
2023-01-19T07:42:23.612Z,89.73
2023-01-19T07:43:23.616Z,89.57
2023-01-19T07:44:23.587Z,89.53
2023-01-19T07:45:23.579Z,89.53
2023-01-19T07:46:23.691Z,89.53
2023-01-19T07:47:23.559Z,89.53
2023-01-19T07:48:23.573Z,90.16
2023-01-19T07:49:23.525Z,89.70
2023-01-19T07:50:23.534Z,89.95
2023-01-19T07:51:23.522Z,90.05
2023-01-19T07:52:23.510Z,89.32
2023-01-19T07:53:23.509Z,89.84
2023-01-19T07:54:23.488Z,89.17
2023-01-19T07:55:23.486Z,89.84
2023-01-19T07:56:23.467Z,89.59
2023-01-19T07:57:23.451Z,89.95
2023-01-19T07:58:23.476Z,89.95
2023-01-19T07:59:23.463Z,90.01
2023-01-19T08:00:23.435Z,90.01
2023-01-19T08:01:23.490Z,89.80
2023-01-19T08:02:23.464Z,89.80
2023-01-19T08:03:23.421Z,89.70
2023-01-19T08:04:23.423Z,89.59
2023-01-19T08:05:23.381Z,89.70
2023-01-19T08:06:23.378Z,89.28
2023-01-19T08:07:23.369Z,89.34
2023-01-19T08:08:23.382Z,89.48
2023-01-19T08:09:23.349Z,89.65
2023-01-19T08:10:23.339Z,89.65
2023-01-19T08:11:23.337Z,89.59
2023-01-19T08:12:23.329Z,89.34
2023-01-19T08:13:23.324Z,89.48
2023-01-19T08:14:23.295Z,89.28
2023-01-19T08:15:23.323Z,89.55
2023-01-19T08:16:23.264Z,89.48
2023-01-19T08:17:23.271Z,89.45
2023-01-19T08:18:23.337Z,89.70
2023-01-19T08:19:23.250Z,89.55
2023-01-19T08:20:23.233Z,89.65
2023-01-19T08:21:23.238Z,89.34
2023-01-19T08:22:23.227Z,89.13
2023-01-19T08:23:23.234Z,89.45
2023-01-19T08:24:23.253Z,89.03
2023-01-19T08:25:23.201Z,89.13
2023-01-19T08:26:23.184Z,89.55
2023-01-19T08:27:23.167Z,89.13
2023-01-19T08:28:23.182Z,88.92
2023-01-19T08:29:23.159Z,89.23
2023-01-19T08:30:23.273Z,89.13
2023-01-19T08:31:24.845Z,89.23
2023-01-19T08:32:24.181Z,88.92
2023-01-19T08:33:23.230Z,89.23
2023-01-19T08:34:23.116Z,88.50
2023-01-19T08:35:23.099Z,88.92
2023-01-19T08:36:23.096Z,88.50
2023-01-19T08:37:23.079Z,88.92
2023-01-19T08:38:23.108Z,89.03
2023-01-19T08:39:23.063Z,88.71
2023-01-19T08:40:23.093Z,89.09
2023-01-19T08:41:24.046Z,89.13
2023-01-19T08:42:23.036Z,88.88
2023-01-19T08:43:23.051Z,88.78
2023-01-19T08:44:23.023Z,88.61
2023-01-19T08:45:23.004Z,88.88
2023-01-19T08:46:23.130Z,88.88
2023-01-19T08:47:23.018Z,88.88
2023-01-19T08:48:23.003Z,88.67
2023-01-19T08:49:22.984Z,88.67
2023-01-19T08:50:22.959Z,88.71
2023-01-19T08:51:22.955Z,88.67
2023-01-19T08:52:22.948Z,88.67
2023-01-19T08:53:22.968Z,88.11
2023-01-19T08:54:22.925Z,88.42
2023-01-19T08:55:22.933Z,88.42
2023-01-19T08:56:22.922Z,88.11
2023-01-19T08:57:22.889Z,88.01
2023-01-19T08:58:22.917Z,88.11
2023-01-19T08:59:22.882Z,88.32
2023-01-19T09:00:22.927Z,88.21
2023-01-19T09:01:22.980Z,88.01
2023-01-19T09:02:23.034Z,88.11
2023-01-19T09:03:23.025Z,88.07
2023-01-19T09:04:22.836Z,88.07
2023-01-19T09:05:22.821Z,87.76
2023-01-19T09:06:22.873Z,87.34
2023-01-19T09:07:22.811Z,87.65
2023-01-19T09:08:22.815Z,87.65
2023-01-19T09:09:22.782Z,87.34
2023-01-19T09:10:22.780Z,87.65
2023-01-19T09:11:22.772Z,87.55
2023-01-19T09:12:22.760Z,87.86
2023-01-19T09:13:22.756Z,87.76
2023-01-19T09:14:22.756Z,87.65
2023-01-19T09:15:22.732Z,87.38
2023-01-19T09:16:22.782Z,87.23
2023-01-19T09:17:22.712Z,87.76
2023-01-19T09:18:22.733Z,87.23
2023-01-19T09:19:22.702Z,87.96
2023-01-19T09:20:22.692Z,87.96
2023-01-19T09:21:22.699Z,88.39
2023-01-19T09:22:22.727Z,88.80
2023-01-19T09:23:23.696Z,89.05
2023-01-19T09:24:22.654Z,89.05
2023-01-19T09:25:22.638Z,89.47
2023-01-19T09:26:22.641Z,89.99
2023-01-19T09:27:22.639Z,90.31
2023-01-19T09:28:22.669Z,90.20
2023-01-19T09:29:22.608Z,90.72
2023-01-19T09:30:22.599Z,91.03
2023-01-19T09:31:22.685Z,90.83
2023-01-19T09:32:22.602Z,91.60
2023-01-19T09:33:22.603Z,91.77
2023-01-19T09:34:22.557Z,91.98
2023-01-19T09:35:22.556Z,92.02
2023-01-19T09:36:22.560Z,92.29
2023-01-19T09:37:22.539Z,92.71
2023-01-19T09:38:22.564Z,92.50
2023-01-19T09:39:22.528Z,92.54
2023-01-19T09:40:22.526Z,92.71
2023-01-19T09:41:22.557Z,93.23
2023-01-19T09:42:23.482Z,92.82
2023-01-19T09:43:22.530Z,93.33
2023-01-19T09:44:22.483Z,93.65
2023-01-19T09:45:22.464Z,93.96
2023-01-19T09:46:22.485Z,94.27
2023-01-19T09:47:22.461Z,94.27
2023-01-19T09:48:22.464Z,93.76
2023-01-19T09:49:22.440Z,93.86
2023-01-19T09:50:22.419Z,94.07
2023-01-19T09:51:23.418Z,93.96
2023-01-19T09:52:22.453Z,94.07
2023-01-19T09:53:22.551Z,94.07
2023-01-19T09:54:22.491Z,93.76
2023-01-19T09:55:22.521Z,93.86
2023-01-19T09:56:22.374Z,94.38
2023-01-19T09:57:22.375Z,94.07
2023-01-19T09:58:22.387Z,93.86
2023-01-19T09:59:22.351Z,93.86
2023-01-19T10:00:22.345Z,94.49
2023-01-19T10:01:22.420Z,93.71
2023-01-19T10:02:22.334Z,94.02
2023-01-19T10:03:22.377Z,93.92
2023-01-19T10:04:22.324Z,93.82
2023-01-19T10:05:22.300Z,93.82
2023-01-19T10:06:22.282Z,93.92
2023-01-19T10:07:22.284Z,93.92
2023-01-19T10:08:22.286Z,93.92
2023-01-19T10:09:22.290Z,93.82
2023-01-19T10:10:22.275Z,94.17
2023-01-19T10:11:22.235Z,93.92
2023-01-19T10:12:23.240Z,93.77
2023-01-19T10:13:22.231Z,94.02
2023-01-19T10:14:22.238Z,93.57
2023-01-19T10:15:22.218Z,93.71
2023-01-19T10:16:22.237Z,94.13
2023-01-19T10:17:22.188Z,94.02
2023-01-19T10:18:22.180Z,93.92
2023-01-19T10:19:23.211Z,93.71
2023-01-19T10:20:22.181Z,93.92
2023-01-19T10:21:22.182Z,94.13
2023-01-19T10:22:22.201Z,94.02
2023-01-19T10:23:22.159Z,94.02
2023-01-19T10:24:22.166Z,94.02
2023-01-19T10:25:22.204Z,93.82
2023-01-19T10:26:22.152Z,94.34
2023-01-19T10:27:22.117Z,94.34
2023-01-19T10:28:22.138Z,94.44
2023-01-19T10:29:22.119Z,94.34
2023-01-19T10:30:22.114Z,94.44
2023-01-19T10:31:22.159Z,93.71
2023-01-19T10:32:22.089Z,94.13
2023-01-19T10:33:22.081Z,94.02
2023-01-19T10:34:23.661Z,93.71
2023-01-19T10:35:23.063Z,93.50
2023-01-19T10:36:22.034Z,93.71
2023-01-19T10:37:22.026Z,94.07
2023-01-19T10:38:22.170Z,94.02
2023-01-19T10:39:22.026Z,93.82
2023-01-19T10:40:21.994Z,94.23
2023-01-19T10:41:21.993Z,94.02
2023-01-19T10:42:21.981Z,94.34
2023-01-19T10:43:21.975Z,93.82
2023-01-19T10:44:21.984Z,93.82
2023-01-19T10:45:21.940Z,93.82
2023-01-19T10:46:22.039Z,93.40
2023-01-19T10:47:21.958Z,93.46
2023-01-19T10:48:21.943Z,93.15
2023-01-19T10:49:21.930Z,93.08
2023-01-19T10:50:21.927Z,92.88
2023-01-19T10:51:21.917Z,92.56
2023-01-19T10:52:21.934Z,92.77
2023-01-19T10:53:21.874Z,93.04
2023-01-19T10:54:21.896Z,92.66
2023-01-19T10:55:21.859Z,92.88
2023-01-19T10:56:21.886Z,92.77
2023-01-19T10:57:21.847Z,92.35
2023-01-19T10:58:21.849Z,91.89
2023-01-19T10:59:21.843Z,92.14
2023-01-19T11:00:21.858Z,92.46
2023-01-19T11:01:21.975Z,92.31
2023-01-19T11:02:22.142Z,92.35
2023-01-19T11:03:21.881Z,92.21
2023-01-19T11:04:21.806Z,92.73
2023-01-19T11:05:21.779Z,92.04
2023-01-19T11:06:21.755Z,92.35
2023-01-19T11:07:21.766Z,92.35
2023-01-19T11:08:21.743Z,92.35
2023-01-19T11:09:21.761Z,92.77
2023-01-19T11:10:22.518Z,92.77
2023-01-19T11:11:21.716Z,93.19
2023-01-19T11:12:21.733Z,92.94
2023-01-19T11:13:21.699Z,92.66
2023-01-19T11:14:21.710Z,92.66
2023-01-19T11:15:21.698Z,92.41
2023-01-19T11:16:21.740Z,92.52
2023-01-19T11:17:21.663Z,92.66
2023-01-19T11:18:21.657Z,92.77
2023-01-19T11:19:21.666Z,92.83
2023-01-19T11:20:21.642Z,92.63
2023-01-19T11:21:21.669Z,92.66
2023-01-19T11:22:21.644Z,92.83
2023-01-19T11:23:21.624Z,92.63
2023-01-19T11:24:21.635Z,92.63
2023-01-19T11:25:21.609Z,93.04
2023-01-19T11:26:21.599Z,92.73
2023-01-19T11:27:21.595Z,92.52
2023-01-19T11:28:21.569Z,92.41
2023-01-19T11:29:21.587Z,92.52
2023-01-19T11:30:21.565Z,92.10
2023-01-19T11:31:21.712Z,92.31
2023-01-19T11:32:21.532Z,92.37
2023-01-19T11:33:21.533Z,92.27
2023-01-19T11:34:21.546Z,92.79
2023-01-19T11:35:21.520Z,92.69
2023-01-19T11:36:21.513Z,92.52
2023-01-19T11:37:21.502Z,92.79
2023-01-19T11:38:21.533Z,92.47
2023-01-19T11:39:21.505Z,92.96
2023-01-19T11:40:21.470Z,92.79
2023-01-19T11:41:21.461Z,92.96
2023-01-19T11:42:21.455Z,92.22
2023-01-19T11:43:21.447Z,92.22
2023-01-19T11:44:21.460Z,91.71
2023-01-19T11:45:21.425Z,91.91
2023-01-19T11:46:21.426Z,91.75
2023-01-19T11:47:21.415Z,91.60
2023-01-19T11:48:21.424Z,91.91
2023-01-19T11:49:21.412Z,91.81
2023-01-19T11:50:21.384Z,91.85
2023-01-19T11:51:21.373Z,92.96
2023-01-19T11:52:21.376Z,92.69
2023-01-19T11:53:21.348Z,92.33
2023-01-19T11:54:21.371Z,92.37
2023-01-19T11:55:21.342Z,92.90
2023-01-19T11:56:21.355Z,92.90
2023-01-19T11:57:21.322Z,92.94
2023-01-19T11:58:21.316Z,93.04
2023-01-19T11:59:21.327Z,93.67
2023-01-19T12:00:21.306Z,93.57
2023-01-19T12:01:21.343Z,94.04
2023-01-19T12:02:21.393Z,93.52
2023-01-19T12:03:21.305Z,93.63
2023-01-19T12:04:21.292Z,93.94
2023-01-19T12:05:21.262Z,93.46
2023-01-19T12:06:21.256Z,93.73
2023-01-19T12:07:21.240Z,94.25
2023-01-19T12:08:21.223Z,93.84
2023-01-19T12:09:21.254Z,94.15
2023-01-19T12:10:21.236Z,94.15
2023-01-19T12:11:21.213Z,93.94
2023-01-19T12:12:21.494Z,94.04
2023-01-19T12:13:21.193Z,93.69
2023-01-19T12:14:21.221Z,94.46
2023-01-19T12:15:21.181Z,94.04
2023-01-19T12:16:21.204Z,94.25
2023-01-19T12:17:21.153Z,94.35
2023-01-19T12:18:21.206Z,94.25
2023-01-19T12:19:21.155Z,94.00
2023-01-19T12:20:21.163Z,94.21
2023-01-19T12:21:21.150Z,94.63
2023-01-19T12:22:21.128Z,94.78
2023-01-19T12:23:21.107Z,94.57
2023-01-19T12:24:21.152Z,94.73
2023-01-19T12:25:21.091Z,95.04
2023-01-19T12:26:21.090Z,94.94
2023-01-19T12:27:21.081Z,94.73
2023-01-19T12:28:21.069Z,94.37
2023-01-19T12:29:21.088Z,94.63
2023-01-19T12:30:21.056Z,94.84
2023-01-19T12:31:21.188Z,94.84
2023-01-19T12:32:21.077Z,94.73
2023-01-19T12:33:21.046Z,94.73
2023-01-19T12:34:21.039Z,94.73
2023-01-19T12:35:21.014Z,94.42
2023-01-19T12:36:21.000Z,94.84
2023-01-19T12:37:20.992Z,94.42
2023-01-19T12:38:20.990Z,94.63
2023-01-19T12:39:20.985Z,94.73
2023-01-19T12:40:21.012Z,94.94
2023-01-19T12:41:21.965Z,94.73
2023-01-19T12:42:21.489Z,94.52
2023-01-19T12:43:21.950Z,95.15
2023-01-19T12:44:20.968Z,95.15
2023-01-19T12:45:20.932Z,94.88
2023-01-19T12:46:20.949Z,95.19
2023-01-19T12:47:20.909Z,95.98
2023-01-19T12:48:20.894Z,95.67
2023-01-19T12:49:20.910Z,96.03
2023-01-19T12:50:20.905Z,96.03
2023-01-19T12:51:20.884Z,95.67
2023-01-19T12:52:20.860Z,95.72